createdAt,value
2022-08-26T00:04:42.838Z,13.40
2022-08-26T00:09:47.298Z,15.30
2022-08-26T00:14:50.530Z,17.10
2022-08-26T00:19:53.603Z,10.80
2022-08-26T00:24:56.606Z,15.20
2022-08-26T00:30:01.800Z,15.40
2022-08-26T00:35:05.749Z,10.50
2022-08-26T00:40:16.867Z,12.00
2022-08-26T00:45:20.553Z,14.40
2022-08-26T00:50:42.257Z,12.20
2022-08-26T00:55:45.613Z,14.90
2022-08-26T01:00:48.959Z,15.20
2022-08-26T01:05:57.921Z,11.20
2022-08-26T01:11:02.624Z,7.00
2022-08-26T01:16:12.088Z,8.90
2022-08-26T01:21:44.020Z,12.20
2022-08-26T01:26:48.869Z,18.50
2022-08-26T01:31:56.015Z,9.40
2022-08-26T01:37:05.447Z,5.80
2022-08-26T01:42:13.391Z,12.10
2022-08-26T01:47:18.269Z,5.20
2022-08-26T01:52:28.106Z,9.70
2022-08-26T01:57:32.003Z,10.20
2022-08-26T02:02:35.005Z,14.50
2022-08-26T02:07:40.418Z,9.70
2022-08-26T02:12:43.482Z,8.00
2022-08-26T02:17:47.708Z,8.70
2022-08-26T02:22:50.723Z,6.40
2022-08-26T02:27:54.755Z,8.40
2022-08-26T02:33:04.042Z,6.30
2022-08-26T02:38:09.795Z,8.90
2022-08-26T02:43:13.289Z,7.00
2022-08-26T02:48:19.164Z,8.50
2022-08-26T02:53:25.333Z,13.10
2022-08-26T02:58:28.658Z,10.90
2022-08-26T03:03:32.252Z,5.90
2022-08-26T03:08:35.698Z,6.70
2022-08-26T03:13:39.727Z,7.20
2022-08-26T03:18:43.467Z,10.30
2022-08-26T03:23:55.159Z,13.70
2022-08-26T03:29:20.493Z,4.80
2022-08-26T03:34:23.597Z,5.40
2022-08-26T03:39:31.455Z,7.10
2022-08-26T03:44:35.227Z,4.60
2022-08-26T03:49:38.558Z,7.20
2022-08-26T03:54:42.279Z,7.70
2022-08-26T03:59:46.515Z,6.50
2022-08-26T04:04:51.260Z,7.00
2022-08-26T04:09:58.670Z,6.80
2022-08-26T04:15:01.682Z,10.20
2022-08-26T04:20:07.771Z,8.90
2022-08-26T04:25:13.464Z,9.40
2022-08-26T04:30:16.815Z,11.30
2022-08-26T04:35:25.857Z,11.90
2022-08-26T04:40:29.300Z,7.80
2022-08-26T04:45:32.314Z,9.40
2022-08-26T04:50:35.522Z,9.00
2022-08-26T04:55:42.741Z,12.80
2022-08-26T05:00:49.825Z,17.00
2022-08-26T05:05:52.939Z,10.00
2022-08-26T05:10:56.492Z,13.70
2022-08-26T05:16:04.518Z,13.30
2022-08-26T05:21:08.207Z,13.50
2022-08-26T05:26:14.184Z,21.10
2022-08-26T05:31:27.265Z,19.50
2022-08-26T05:36:33.912Z,22.30
2022-08-26T05:41:41.199Z,15.30
2022-08-26T05:46:44.995Z,16.90
2022-08-26T05:51:48.463Z,15.30
2022-08-26T05:56:54.134Z,17.00
2022-08-26T06:01:57.335Z,15.40
2022-08-26T06:07:01.788Z,15.50
2022-08-26T06:12:06.126Z,16.10
2022-08-26T06:17:09.545Z,16.30
2022-08-26T06:22:32.721Z,13.00
2022-08-26T06:27:37.096Z,9.40
2022-08-26T06:32:40.065Z,13.10
2022-08-26T06:37:43.490Z,10.20
2022-08-26T06:42:46.896Z,13.60
2022-08-26T06:47:50.016Z,15.00
2022-08-26T06:52:54.751Z,15.00
2022-08-26T06:58:00.116Z,12.90
2022-08-26T07:03:04.467Z,11.10
2022-08-26T07:08:07.678Z,10.60
2022-08-26T07:13:12.543Z,13.00
2022-08-26T07:18:17.328Z,11.10
2022-08-26T07:23:20.818Z,8.80
2022-08-26T07:28:27.061Z,7.60
2022-08-26T07:33:30.276Z,8.80
2022-08-26T07:38:34.480Z,8.00
2022-08-26T07:43:38.001Z,9.90
2022-08-26T07:48:41.578Z,11.20
2022-08-26T07:53:52.642Z,12.80
2022-08-26T07:58:56.059Z,10.40
2022-08-26T08:03:59.171Z,13.60
2022-08-26T08:09:06.172Z,10.60
2022-08-26T08:14:11.712Z,7.30
2022-08-26T08:19:15.679Z,12.80
2022-08-26T08:24:19.181Z,15.70
2022-08-26T08:29:22.189Z,13.40
2022-08-26T08:34:28.119Z,7.40
2022-08-26T08:39:32.121Z,12.60
2022-08-26T08:44:41.157Z,10.30
2022-08-26T08:49:44.992Z,11.70
2022-08-26T08:54:48.933Z,10.20
2022-08-26T09:00:09.538Z,12.00
2022-08-26T09:05:25.174Z,10.10
2022-08-26T09:10:45.023Z,11.40
2022-08-26T09:16:10.063Z,13.70
2022-08-26T09:21:16.304Z,9.50
2022-08-26T09:26:30.958Z,10.40
2022-08-26T09:31:42.214Z,11.80
2022-08-26T09:36:57.294Z,11.80
2022-08-26T09:42:23.379Z,7.30
2022-08-26T09:47:31.635Z,11.80
2022-08-26T09:52:34.984Z,7.80
2022-08-26T09:57:52.432Z,10.50
2022-08-26T10:02:58.151Z,9.70
2022-08-26T10:08:23.146Z,8.80
2022-08-26T10:13:26.230Z,11.70
2022-08-26T10:18:35.891Z,7.90
2022-08-26T10:23:43.969Z,10.30
2022-08-26T10:29:14.207Z,7.90
2022-08-26T10:34:18.955Z,11.30
2022-08-26T10:39:36.252Z,12.90
2022-08-26T10:44:41.589Z,12.50
2022-08-26T10:49:51.706Z,8.60
2022-08-26T10:55:03.705Z,7.00
2022-08-26T11:00:51.443Z,6.90
2022-08-26T11:06:16.378Z,9.60
2022-08-26T11:11:41.301Z,12.70
2022-08-26T11:16:51.968Z,7.90
2022-08-26T11:22:07.181Z,12.50
2022-08-26T11:27:23.600Z,8.40
2022-08-26T11:32:52.448Z,9.30
2022-08-26T11:38:17.400Z,12.90
2022-08-26T11:43:26.201Z,8.90
2022-08-26T11:48:39.543Z,9.90
2022-08-26T11:53:47.359Z,7.20
2022-08-26T11:58:55.897Z,11.40
2022-08-26T12:04:01.073Z,12.40
2022-08-26T12:09:10.931Z,10.60
2022-08-26T12:14:18.724Z,9.90
2022-08-26T12:19:33.907Z,10.30
2022-08-26T12:24:46.798Z,8.60
2022-08-26T12:30:12.445Z,6.70
2022-08-26T12:35:21.162Z,11.20
2022-08-26T12:40:31.772Z,8.80
2022-08-26T12:45:44.489Z,7.30
2022-08-26T12:50:51.607Z,9.00
2022-08-26T12:56:00.610Z,7.80
2022-08-26T13:06:16.760Z,10.00
2022-08-26T13:11:35.606Z,8.40
2022-08-26T13:16:41.848Z,6.90
2022-08-26T13:21:49.634Z,8.50
2022-08-26T13:26:52.977Z,10.00
2022-08-26T13:31:56.518Z,4.40
2022-08-26T13:37:00.970Z,8.40
2022-08-26T13:42:04.357Z,7.60
2022-08-26T13:47:07.439Z,5.30
2022-08-26T13:52:11.772Z,6.40
2022-08-26T13:57:14.778Z,11.10
2022-08-26T14:02:17.993Z,10.60
2022-08-26T14:07:21.571Z,8.50
2022-08-26T14:12:25.406Z,9.10
2022-08-26T14:17:31.483Z,8.20
2022-08-26T14:22:40.441Z,8.40
2022-08-26T14:27:46.947Z,8.90
2022-08-26T14:32:55.259Z,9.00
2022-08-26T14:37:58.565Z,13.10
2022-08-26T14:43:01.907Z,5.30
2022-08-26T14:48:05.301Z,7.00
2022-08-26T14:53:29.115Z,12.50
2022-08-26T14:58:34.885Z,8.00
2022-08-26T15:03:38.202Z,10.50
2022-08-26T15:08:41.515Z,10.50
2022-08-26T15:13:48.310Z,13.20
2022-08-26T15:18:54.430Z,7.20
2022-08-26T15:23:57.604Z,6.10
2022-08-26T15:29:04.840Z,8.30
2022-08-26T15:34:16.178Z,5.40
2022-08-26T15:39:20.710Z,5.70
2022-08-26T15:44:25.602Z,6.30
2022-08-26T15:49:28.770Z,6.60
2022-08-26T15:54:32.944Z,5.10
2022-08-26T15:59:36.057Z,7.90
2022-08-26T16:04:39.981Z,6.60
2022-08-26T16:09:42.992Z,8.20
2022-08-26T16:14:52.710Z,6.80
2022-08-26T16:19:56.456Z,9.00
2022-08-26T16:25:00.000Z,9.40
2022-08-26T16:30:09.263Z,5.80
2022-08-26T16:40:15.509Z,7.00
2022-08-26T16:45:19.468Z,8.90
2022-08-26T16:50:24.059Z,7.80
2022-08-26T16:55:27.620Z,8.40
2022-08-26T17:00:34.344Z,9.00
2022-08-26T17:05:37.463Z,9.30
2022-08-26T17:10:40.671Z,6.90
2022-08-26T17:15:54.337Z,11.50
2022-08-26T17:21:07.236Z,11.40
2022-08-26T17:26:12.461Z,10.40
2022-08-26T17:31:15.602Z,7.00
2022-08-26T17:36:18.746Z,10.00
2022-08-26T17:41:21.856Z,14.40
2022-08-26T17:46:26.337Z,10.00
2022-08-26T17:51:29.706Z,8.20
2022-08-26T17:56:32.709Z,8.80
2022-08-26T18:01:35.740Z,11.30
2022-08-26T18:06:39.645Z,8.50
2022-08-26T18:11:43.361Z,9.70
2022-08-26T18:16:46.686Z,9.90
2022-08-26T18:21:49.688Z,10.50
2022-08-26T18:26:52.593Z,16.60
2022-08-26T18:31:55.757Z,7.90
2022-08-26T18:36:58.721Z,8.70
2022-08-26T18:42:01.956Z,10.20
2022-08-26T18:47:05.027Z,11.40
2022-08-26T18:52:08.243Z,9.20
2022-08-26T18:57:12.374Z,9.10
2022-08-26T19:02:15.492Z,8.20
2022-08-26T19:07:20.567Z,14.10
2022-08-26T19:12:26.994Z,15.70
2022-08-26T19:17:30.341Z,14.40
2022-08-26T19:22:33.757Z,10.70
2022-08-26T19:27:36.761Z,10.80
2022-08-26T19:32:40.177Z,12.00
2022-08-26T19:37:46.371Z,16.20
2022-08-26T19:42:50.395Z,14.70
2022-08-26T19:47:54.127Z,13.40
2022-08-26T19:52:57.220Z,12.10
2022-08-26T19:58:00.343Z,12.10
2022-08-26T20:03:03.688Z,11.80
2022-08-26T20:08:06.620Z,17.40
2022-08-26T20:13:09.861Z,15.40
2022-08-26T20:18:31.610Z,18.20
2022-08-26T20:23:36.569Z,14.80
2022-08-26T20:28:39.594Z,15.40
2022-08-26T20:33:46.597Z,13.70
2022-08-26T20:38:50.553Z,16.20
2022-08-26T20:43:54.752Z,15.60
2022-08-26T20:48:58.299Z,15.70
2022-08-26T20:54:01.791Z,13.60
2022-08-26T20:59:07.186Z,16.50
2022-08-26T21:04:14.091Z,18.90
2022-08-26T21:09:18.165Z,12.60
2022-08-26T21:14:25.889Z,13.50
2022-08-26T21:19:29.194Z,15.80
2022-08-26T21:24:32.404Z,18.10
2022-08-26T21:29:36.522Z,16.70
2022-08-26T21:34:39.545Z,15.10
2022-08-26T21:39:42.858Z,17.20
2022-08-26T21:44:46.497Z,13.40
2022-08-26T21:49:56.041Z,18.40
2022-08-26T21:55:00.994Z,15.20
2022-08-26T22:00:08.753Z,16.10
2022-08-26T22:05:12.024Z,18.30
2022-08-26T22:10:15.134Z,17.50
2022-08-26T22:15:23.118Z,14.50
2022-08-26T22:20:26.281Z,17.30
2022-08-26T22:25:29.374Z,36.00
2022-08-26T22:30:35.557Z,18.00
2022-08-26T22:35:43.915Z,19.80
2022-08-26T22:40:56.829Z,17.60
2022-08-26T22:46:00.118Z,14.80
2022-08-26T22:51:06.435Z,10.90
2022-08-26T22:56:09.530Z,19.00
2022-08-26T23:01:13.217Z,14.70
2022-08-26T23:06:16.465Z,12.50
2022-08-26T23:11:19.576Z,15.30
2022-08-26T23:16:22.830Z,16.70
2022-08-26T23:21:26.000Z,12.30
2022-08-26T23:26:32.490Z,13.30
2022-08-26T23:31:38.519Z,11.60
2022-08-26T23:36:43.617Z,14.50
2022-08-26T23:41:49.185Z,12.50
2022-08-26T23:46:52.601Z,11.30
2022-08-26T23:52:14.147Z,13.90
2022-08-26T23:57:20.020Z,16.60
